createdAt,value
2023-05-07T00:01:12.139Z,98063.50
2023-05-07T00:06:13.982Z,98057.00
2023-05-07T00:11:15.907Z,98066.75
2023-05-07T00:16:17.828Z,98061.06
2023-05-07T00:21:19.673Z,98052.63
2023-05-07T00:26:22.032Z,98049.22
2023-05-07T00:31:25.909Z,98058.78
2023-05-07T00:36:28.069Z,98057.16
2023-05-07T00:41:31.631Z,98053.75
2023-05-07T00:46:34.025Z,98059.13
2023-05-07T00:51:36.111Z,98049.69
2023-05-07T00:56:39.008Z,98052.94
2023-05-07T01:01:41.126Z,98053.44
2023-05-07T01:06:45.549Z,98047.59
2023-05-07T01:11:49.084Z,98052.59
2023-05-07T01:16:52.229Z,98059.59
2023-05-07T01:22:03.203Z,98053.91
2023-05-07T01:27:06.377Z,98051.28
2023-05-07T01:32:11.097Z,98048.69
2023-05-07T01:37:14.068Z,98049.34
2023-05-07T01:42:16.175Z,98046.44
2023-05-07T01:47:18.218Z,98049.50
2023-05-07T01:52:20.163Z,98045.78
2023-05-07T01:57:22.120Z,98056.97
2023-05-07T02:02:24.147Z,98056.31
2023-05-07T02:07:27.138Z,98054.72
2023-05-07T02:12:29.906Z,98073.34
2023-05-07T02:17:33.035Z,98074.97
2023-05-07T02:22:35.386Z,98068.47
2023-05-07T02:27:37.220Z,98075.84
2023-05-07T02:32:39.772Z,98074.19
2023-05-07T02:37:41.632Z,98066.75
2023-05-07T02:42:43.664Z,98062.84
2023-05-07T02:47:45.708Z,98074.50
2023-05-07T02:52:48.387Z,98069.31
2023-05-07T02:57:50.318Z,98086.53
2023-05-07T03:02:52.284Z,98078.75
2023-05-07T03:07:54.527Z,98080.06
2023-05-07T03:12:56.625Z,98071.78
2023-05-07T03:17:58.690Z,98067.41
2023-05-07T03:23:02.027Z,98066.72
2023-05-07T03:28:03.971Z,98065.88
2023-05-07T03:33:17.817Z,98070.59
2023-05-07T03:38:20.076Z,98074.78
2023-05-07T03:43:22.338Z,98085.69
2023-05-07T03:48:31.371Z,98085.84
2023-05-07T03:53:34.636Z,98091.81
2023-05-07T03:58:36.766Z,98095.53
2023-05-07T04:03:43.463Z,98099.47
2023-05-07T04:08:45.504Z,98104.03
2023-05-07T04:13:48.760Z,98104.00
2023-05-07T04:18:54.585Z,98098.13
2023-05-07T04:23:57.254Z,98099.28
2023-05-07T04:29:00.286Z,98100.59
2023-05-07T04:34:07.229Z,98095.09
2023-05-07T04:39:09.322Z,98105.66
2023-05-07T04:44:11.952Z,98103.72
2023-05-07T04:49:13.845Z,98108.84
2023-05-07T04:54:16.316Z,98116.78
2023-05-07T04:59:18.298Z,98117.31
2023-05-07T05:04:20.358Z,98119.25
2023-05-07T05:09:23.053Z,98116.78
2023-05-07T05:14:25.368Z,98128.03
2023-05-07T05:19:28.317Z,98128.19
2023-05-07T05:24:30.311Z,98138.81
2023-05-07T05:29:32.877Z,98134.63
2023-05-07T05:34:34.925Z,98144.69
2023-05-07T05:39:38.032Z,98140.81
2023-05-07T05:44:41.569Z,98158.56
2023-05-07T05:49:44.488Z,98159.81
2023-05-07T05:54:50.650Z,98163.84
2023-05-07T05:59:53.225Z,98163.50
2023-05-07T06:04:55.180Z,98159.22
2023-05-07T06:09:58.833Z,98170.44
2023-05-07T06:15:00.870Z,98170.75
2023-05-07T06:20:02.837Z,98166.66
2023-05-07T06:25:06.454Z,98165.63
2023-05-07T06:30:09.766Z,98179.03
2023-05-07T06:35:11.947Z,98179.19
2023-05-07T06:40:15.613Z,98180.81
2023-05-07T06:45:19.042Z,98181.88
2023-05-07T06:50:20.944Z,98193.19
2023-05-07T06:55:23.813Z,98199.69
2023-05-07T07:00:26.311Z,98204.75
2023-05-07T07:05:31.051Z,98206.09
2023-05-07T07:10:34.218Z,98197.81
2023-05-07T07:15:37.604Z,98191.13
2023-05-07T07:20:39.573Z,98194.72
2023-05-07T07:25:43.472Z,98207.41
2023-05-07T07:30:46.384Z,98215.97
2023-05-07T07:35:48.438Z,98218.22
2023-05-07T07:40:50.577Z,98225.22
2023-05-07T07:45:53.055Z,98221.97
2023-05-07T07:50:56.051Z,98225.38
2023-05-07T07:55:59.681Z,98223.59
2023-05-07T08:01:05.509Z,98219.25
2023-05-07T08:06:07.459Z,98223.78
2023-05-07T08:11:11.110Z,98223.44
2023-05-07T08:16:13.508Z,98230.59
2023-05-07T08:21:15.926Z,98234.50
2023-05-07T08:26:18.084Z,98231.59
2023-05-07T08:31:20.217Z,98234.19
2023-05-07T08:36:22.523Z,98237.09
2023-05-07T08:41:24.580Z,98237.09
2023-05-07T08:46:29.992Z,98247.34
2023-05-07T08:51:32.438Z,98250.28
2023-05-07T08:56:34.791Z,98243.53
2023-05-07T09:01:37.097Z,98252.31
2023-05-07T09:06:42.745Z,98262.22
2023-05-07T09:11:46.426Z,98260.13
2023-05-07T09:16:50.726Z,98257.03
2023-05-07T09:22:03.803Z,98250.53
2023-05-07T09:27:14.522Z,98255.41
2023-05-07T09:32:19.805Z,98247.09
2023-05-07T09:37:22.396Z,98249.06
2023-05-07T09:42:26.575Z,98260.16
2023-05-07T09:47:33.593Z,98245.13
2023-05-07T09:52:37.164Z,98240.34
2023-05-07T09:57:43.092Z,98255.97
2023-05-07T10:02:49.414Z,98263.75
2023-05-07T10:07:54.087Z,98247.09
2023-05-07T10:12:58.251Z,98246.34
2023-05-07T10:18:07.684Z,98248.47
2023-05-07T10:23:15.527Z,98254.22
2023-05-07T10:28:25.095Z,98260.94
2023-05-07T10:33:31.300Z,98259.47
2023-05-07T10:38:35.097Z,98251.19
2023-05-07T10:43:43.070Z,98255.50
2023-05-07T10:49:01.813Z,98243.91
2023-05-07T10:54:13.770Z,98241.53
2023-05-07T10:59:28.324Z,98237.34
2023-05-07T11:04:36.168Z,98232.03
2023-05-07T11:10:05.269Z,98238.91
2023-05-07T11:15:40.407Z,98246.59
2023-05-07T11:20:52.373Z,98240.06
2023-05-07T11:26:15.374Z,98232.19
2023-05-07T11:31:23.464Z,98233.84
2023-05-07T11:36:27.176Z,98240.38
2023-05-07T11:41:38.251Z,98229.44
2023-05-07T11:46:44.971Z,98233.81
2023-05-07T11:51:47.785Z,98234.00
2023-05-07T11:56:50.419Z,98241.84
2023-05-07T12:01:52.288Z,98241.91
2023-05-07T12:06:57.246Z,98247.06
2023-05-07T12:12:05.157Z,98240.41
2023-05-07T12:17:11.247Z,98236.63
2023-05-07T12:22:13.892Z,98229.97
2023-05-07T12:27:16.859Z,98243.16
2023-05-07T12:32:20.264Z,98247.13
2023-05-07T12:37:27.557Z,98248.81
2023-05-07T12:42:37.311Z,98247.53
2023-05-07T12:47:39.289Z,98234.97
2023-05-07T12:52:41.593Z,98235.56
2023-05-07T12:57:48.657Z,98239.75
2023-05-07T13:02:50.707Z,98231.97
2023-05-07T13:07:59.088Z,98235.19
2023-05-07T13:13:01.082Z,98244.22
2023-05-07T13:18:03.759Z,98239.63
2023-05-07T13:23:05.734Z,98236.44
2023-05-07T13:28:11.207Z,98230.22
2023-05-07T13:33:13.727Z,98228.53
2023-05-07T13:38:17.034Z,98215.34
2023-05-07T13:43:19.898Z,98202.06
2023-05-07T13:48:21.783Z,98201.63
2023-05-07T13:53:23.606Z,98207.72
2023-05-07T13:58:25.464Z,98225.50
2023-05-07T14:03:27.390Z,98227.50
2023-05-07T14:08:31.818Z,98213.25
2023-05-07T14:13:35.428Z,98204.47
2023-05-07T14:18:38.248Z,98197.56
2023-05-07T14:23:40.156Z,98188.41
2023-05-07T14:28:47.206Z,98195.91
2023-05-07T14:33:50.848Z,98189.97
2023-05-07T14:38:55.110Z,98190.53
2023-05-07T14:43:57.034Z,98201.44
2023-05-07T14:48:58.900Z,98204.25
2023-05-07T14:54:01.497Z,98202.13
2023-05-07T14:59:04.633Z,98205.28
2023-05-07T15:04:07.035Z,98217.50
2023-05-07T15:09:10.006Z,98221.31
2023-05-07T15:14:11.866Z,98219.94
2023-05-07T15:19:15.928Z,98209.03
2023-05-07T15:24:17.823Z,98211.88
2023-05-07T15:29:19.776Z,98213.97
2023-05-07T15:34:22.793Z,98216.38
2023-05-07T15:39:25.880Z,98218.50
2023-05-07T15:44:29.631Z,98218.53
2023-05-07T15:49:31.565Z,98206.72
2023-05-07T15:54:33.506Z,98201.78
2023-05-07T15:59:36.204Z,98206.78
2023-05-07T16:04:38.135Z,98193.88
2023-05-07T16:09:40.034Z,98201.69
2023-05-07T16:14:41.951Z,98210.38
2023-05-07T16:19:43.908Z,98204.31
2023-05-07T16:24:46.169Z,98212.97
2023-05-07T16:29:48.314Z,98211.66
2023-05-07T16:34:50.172Z,98209.53
2023-05-07T16:39:52.085Z,98207.16
2023-05-07T16:44:54.826Z,98209.22
2023-05-07T16:49:56.672Z,98218.00
2023-05-07T16:55:01.454Z,98225.06
2023-05-07T17:00:07.500Z,98235.09
2023-05-07T17:05:09.951Z,98231.84
2023-05-07T17:10:12.005Z,98231.84
2023-05-07T17:15:14.189Z,98222.00
2023-05-07T17:20:16.371Z,98225.34
2023-05-07T17:25:18.331Z,98239.09
2023-05-07T17:30:20.323Z,98237.19
2023-05-07T17:35:22.161Z,98237.00
2023-05-07T17:40:24.024Z,98253.78
2023-05-07T17:45:26.020Z,98257.25
2023-05-07T17:50:28.442Z,98255.47
2023-05-07T17:55:30.630Z,98264.34
2023-05-07T18:00:32.604Z,98278.97
2023-05-07T18:05:37.927Z,98279.03
2023-05-07T18:10:40.093Z,98285.63
2023-05-07T18:15:42.188Z,98281.47
2023-05-07T18:20:49.402Z,98286.69
2023-05-07T18:25:51.306Z,98290.44
2023-05-07T18:30:53.101Z,98290.59
2023-05-07T18:35:55.006Z,98299.84
2023-05-07T18:41:04.506Z,98300.84
2023-05-07T18:46:06.718Z,98308.81
2023-05-07T18:51:12.632Z,98305.06
2023-05-07T18:56:14.622Z,98311.69
2023-05-07T19:01:16.636Z,98315.41
2023-05-07T19:06:18.567Z,98319.25
2023-05-07T19:11:20.916Z,98321.69
2023-05-07T19:16:23.081Z,98332.66
2023-05-07T19:21:25.602Z,98341.53
2023-05-07T19:26:27.525Z,98341.28
2023-05-07T19:31:30.581Z,98340.56
2023-05-07T19:36:34.571Z,98338.44
2023-05-07T19:41:36.528Z,98360.16
2023-05-07T19:46:40.551Z,98363.13
2023-05-07T19:51:42.514Z,98378.41
2023-05-07T19:56:44.341Z,98376.91
2023-05-07T20:01:46.229Z,98378.75
2023-05-07T20:06:48.081Z,98383.06
2023-05-07T20:11:50.090Z,98383.38
2023-05-07T20:16:52.000Z,98389.97
2023-05-07T20:21:53.941Z,98387.44
2023-05-07T20:26:55.819Z,98384.16
2023-05-07T20:31:57.799Z,98386.56
2023-05-07T20:37:00.362Z,98386.63
2023-05-07T20:42:02.257Z,98393.56
2023-05-07T20:47:04.378Z,98394.72
2023-05-07T20:52:06.195Z,98395.16
2023-05-07T20:57:08.015Z,98391.53
2023-05-07T21:02:09.856Z,98391.97
2023-05-07T21:07:12.763Z,98401.41
2023-05-07T21:12:14.575Z,98406.44
2023-05-07T21:17:16.469Z,98419.31
2023-05-07T21:22:18.316Z,98415.78
2023-05-07T21:27:20.439Z,98414.59
2023-05-07T21:32:22.276Z,98420.03
2023-05-07T21:37:24.113Z,98433.16
2023-05-07T21:42:27.049Z,98438.06
2023-05-07T21:47:28.872Z,98438.34
2023-05-07T21:52:30.811Z,98439.59
2023-05-07T21:57:33.199Z,98450.50
2023-05-07T22:02:35.221Z,98438.91
2023-05-07T22:07:37.363Z,98456.09
2023-05-07T22:12:39.881Z,98461.97
2023-05-07T22:17:41.796Z,98460.88
2023-05-07T22:22:52.713Z,98460.75
2023-05-07T22:27:54.897Z,98464.41
2023-05-07T22:32:56.797Z,98465.81
2023-05-07T22:37:58.638Z,98470.97
2023-05-07T22:43:00.539Z,98467.56
2023-05-07T22:48:02.498Z,98469.78
2023-05-07T22:53:05.145Z,98470.19
2023-05-07T22:58:08.012Z,98468.28
2023-05-07T23:03:09.927Z,98471.72
2023-05-07T23:08:12.273Z,98465.31
2023-05-07T23:13:17.550Z,98466.97
2023-05-07T23:18:19.753Z,98463.31
2023-05-07T23:23:21.764Z,98474.06
2023-05-07T23:28:23.604Z,98475.03
2023-05-07T23:33:25.577Z,98462.09
2023-05-07T23:38:27.508Z,98469.16
2023-05-07T23:43:29.310Z,98460.19
2023-05-07T23:48:31.158Z,98472.44
2023-05-07T23:53:33.036Z,98467.13
2023-05-07T23:58:34.866Z,98454.19
